Time;durP1;ratioP1;P1;durP2;ratioP2;P2;SDS_P1;SDS_P2;PMS_P1;PMS_P2;Temp;Humidity;BMP_temperature;BMP_pressure;BME280_temperature;BME280_humidity;BME280_pressure;Samples;Min_cycle;Max_cycle;Signal;HPM_P1;HPM_P2
2023/05/15 00:00:55;;;;;;;24.77;19.48;;;;;;;11.02;84.37;101231.34;4820468;29;20037;-84
2023/05/15 00:03:21;;;;;;;28.52;19.15;;;;;;;10.95;84.35;101233.94;4820525;29;20042;-84
2023/05/15 00:05:46;;;;;;;29.38;19.10;;;;;;;10.88;84.71;101231.16;4818667;29;20044;-85
2023/05/15 00:08:11;;;;;;;26.10;19.77;;;;;;;10.83;85.20;101235.47;4821394;29;20199;-82
2023/05/15 00:10:37;;;;;;;25.90;18.55;;;;;;;10.76;85.25;101230.84;4799621;29;20041;-82
2023/05/15 00:13:02;;;;;;;26.33;18.92;;;;;;;10.73;85.55;101222.28;4821134;29;20030;-83
2023/05/15 00:15:27;;;;;;;27.38;18.70;;;;;;;10.70;85.48;101228.06;4820037;29;20027;-82
2023/05/15 00:17:53;;;;;;;28.58;20.38;;;;;;;10.69;85.28;101219.16;4819124;29;20090;-82
2023/05/15 00:20:18;;;;;;;27.20;18.80;;;;;;;10.66;85.59;101208.75;4820446;29;20038;-82
2023/05/15 00:22:44;;;;;;;27.92;19.52;;;;;;;10.67;85.42;101215.81;4815835;29;20026;-82
2023/05/15 00:25:09;;;;;;;27.02;18.92;;;;;;;10.68;85.10;101222.03;4819546;29;20034;-83
2023/05/15 00:27:35;;;;;;;26.52;19.48;;;;;;;10.65;85.18;101212.47;4821129;29;20032;-83
2023/05/15 00:30:00;;;;;;;24.65;18.55;;;;;;;10.65;85.33;101217.84;4820079;29;20050;-82
2023/05/15 00:32:25;;;;;;;26.25;18.20;;;;;;;10.60;85.45;101199.56;4818091;29;20037;-82
2023/05/15 00:34:51;;;;;;;29.60;20.42;;;;;;;10.58;85.57;101206.19;4820809;29;20038;-82
2023/05/15 00:37:16;;;;;;;26.80;20.15;;;;;;;10.55;85.67;101209.25;4821996;29;20919;-83
2023/05/15 00:39:41;;;;;;;28.75;20.63;;;;;;;10.54;86.41;101207.56;4820076;29;20035;-82
2023/05/15 00:42:07;;;;;;;28.88;20.70;;;;;;;10.52;86.22;101206.91;4818386;29;20038;-83
2023/05/15 00:44:32;;;;;;;29.83;20.55;;;;;;;10.47;86.19;101204.81;4798185;29;20050;-82
2023/05/15 00:46:58;;;;;;;30.40;18.90;;;;;;;10.49;85.89;101201.91;4817271;29;20483;-83
2023/05/15 00:49:25;;;;;;;27.20;18.42;;;;;;;10.44;85.79;101200.59;4819874;29;20036;-82
2023/05/15 00:51:51;;;;;;;29.55;19.42;;;;;;;10.42;85.71;101196.44;4819054;29;20384;-82
2023/05/15 00:54:16;;;;;;;25.85;18.58;;;;;;;10.40;85.39;101202.03;4789025;29;20090;-81
2023/05/15 00:56:42;;;;;;;23.15;17.38;;;;;;;10.44;85.17;101200.59;4821979;29;20053;-81
2023/05/15 00:59:07;;;;;;;27.23;19.55;;;;;;;10.43;85.24;101207.00;4784980;29;20051;-82
2023/05/15 01:01:33;;;;;;;26.63;19.13;;;;;;;10.42;85.12;101202.66;4793221;29;20034;-82
2023/05/15 01:04:02;;;;;;;27.52;19.38;;;;;;;10.39;85.21;101194.97;4804398;29;20095;-82
2023/05/15 01:06:31;;;;;;;26.75;19.77;;;;;;;10.41;85.22;101192.91;4809547;29;20038;-82
2023/05/15 01:08:58;;;;;;;29.95;20.42;;;;;;;10.35;84.86;101193.63;4819985;29;20063;-82
2023/05/15 01:11:24;;;;;;;32.30;20.60;;;;;;;10.37;84.90;101193.44;4786871;29;20407;-82
2023/05/15 01:13:49;;;;;;;30.70;20.30;;;;;;;10.35;84.64;101204.41;4804403;29;20069;-82
2023/05/15 01:16:15;;;;;;;27.73;19.95;;;;;;;10.30;85.03;101204.13;4818437;29;20042;-82
2023/05/15 01:18:40;;;;;;;;;;;;;;;10.29;85.02;101199.75;4815262;29;20516;-82
2023/05/15 01:21:24;;;;;;;29.07;19.90;;;;;;;10.24;84.98;101188.72;4815952;29;20007;-82
2023/05/15 01:24:11;;;;;;;27.90;19.20;;;;;;;10.24;85.32;101176.09;4815419;29;20050;-82
2023/05/15 01:26:58;;;;;;;26.70;18.88;;;;;;;10.22;84.97;101175.47;4801411;29;20041;-82
2023/05/15 01:29:29;;;;;;;29.35;19.45;;;;;;;10.19;85.56;101185.75;4818561;29;20080;-82
2023/05/15 01:32:03;;;;;;;30.30;20.25;;;;;;;10.17;85.42;101183.25;4815305;29;20092;-82
2023/05/15 01:34:38;;;;;;;29.38;19.95;;;;;;;10.11;86.09;101189.38;4802719;29;20133;-82
2023/05/15 01:37:03;;;;;;;28.10;19.77;;;;;;;10.08;86.00;101185.19;4805925;29;20034;-82
2023/05/15 01:39:29;;;;;;;29.98;20.13;;;;;;;10.01;86.29;101184.28;4789472;29;20102;-82
2023/05/15 01:41:59;;;;;;;31.48;20.17;;;;;;;9.97;86.45;101183.78;4790953;29;20162;-82
2023/05/15 01:44:29;;;;;;;31.20;21.40;;;;;;;9.89;86.58;101185.75;4791875;29;20565;-82
2023/05/15 01:46:57;;;;;;;28.83;20.17;;;;;;;9.89;86.51;101174.97;4790333;29;20023;-82
2023/05/15 01:49:27;;;;;;;29.85;19.88;;;;;;;9.89;87.08;101180.34;4806126;29;20090;-82
2023/05/15 01:51:56;;;;;;;30.30;18.48;;;;;;;9.82;87.03;101175.75;4817136;29;20030;-82
2023/05/15 01:54:21;;;;;;;29.25;19.63;;;;;;;9.83;87.20;101177.41;4788730;29;20118;-82
2023/05/15 01:56:47;;;;;;;32.75;20.88;;;;;;;9.79;86.81;101173.41;4804298;29;20038;-82
2023/05/15 01:59:12;;;;;;;30.83;19.85;;;;;;;9.74;86.96;101175.81;4798735;29;20041;-82
2023/05/15 02:01:37;;;;;;;;;;;;;;;9.69;87.12;101179.06;4819297;29;20026;-82
2023/05/15 02:04:03;;;;;;;32.20;20.07;;;;;;;9.68;87.81;101173.88;4802065;29;19931;-82
2023/05/15 02:06:28;;;;;;;25.73;17.30;;;;;;;9.64;87.46;101168.00;4818540;29;20034;-82
2023/05/15 02:08:55;;;;;;;;;;;;;;;9.56;87.52;101173.47;4818208;29;20026;-82
2023/05/15 02:11:20;;;;;;;29.50;18.13;;;;;;;9.53;88.17;101174.66;4802153;29;19921;-83
2023/05/15 02:13:46;;;;;;;30.48;19.83;;;;;;;9.49;88.39;101184.13;4823500;29;20451;-87
2023/05/15 02:16:11;;;;;;;;;;;;;;;9.49;87.93;101186.81;4818767;29;20035;-89
2023/05/15 02:18:36;;;;;;;29.40;19.07;;;;;;;9.46;88.36;101184.47;4820544;29;19917;-84
2023/05/15 02:21:02;;;;;;;33.25;19.45;;;;;;;9.42;88.51;101176.97;4818166;29;20029;-86
2023/05/15 02:23:27;;;;;;;32.58;19.80;;;;;;;9.38;88.91;101180.00;4817048;29;20519;-89
2023/05/15 02:26:24;;;;;;;29.50;19.00;;;;;;;9.36;88.88;101178.50;4828558;29;20057;-85
2023/05/15 02:28:58;;;;;;;31.58;18.95;;;;;;;9.33;88.85;101184.25;4818173;29;20130;-84
2023/05/15 02:31:46;;;;;;;32.38;20.05;;;;;;;9.29;88.93;101180.25;4802740;29;20097;-84
2023/05/15 02:34:45;;;;;;;29.20;19.88;;;;;;;9.30;88.84;101184.63;4800278;29;20031;-84
2023/05/15 02:37:13;;;;;;;33.17;20.02;;;;;;;9.27;88.54;101177.72;4801478;29;20105;-84
2023/05/15 02:39:39;;;;;;;32.35;19.30;;;;;;;9.30;88.43;101187.31;4819268;29;20019;-84
2023/05/15 02:42:05;;;;;;;30.77;20.65;;;;;;;9.22;89.20;101191.72;4804413;29;20053;-84
2023/05/15 02:44:30;;;;;;;30.15;19.55;;;;;;;9.21;88.98;101187.34;4820554;29;20038;-84
2023/05/15 02:46:56;;;;;;;;;;;;;;;9.18;89.17;101179.66;4803857;29;20030;-84
2023/05/15 02:49:21;;;;;;;29.53;18.77;;;;;;;9.14;nan;101172.13;4821741;29;19928;-85
2023/05/15 02:51:46;;;;;;;;;;;;;;;9.12;88.72;101183.06;4820209;29;20299;-84
2023/05/15 02:54:12;;;;;;;31.07;19.00;;;;;;;9.05;89.32;101185.63;4802212;29;19961;-85
2023/05/15 02:56:37;;;;;;;32.90;19.75;;;;;;;9.07;88.98;101182.75;4817522;29;20062;-85
2023/05/15 02:59:02;;;;;;;;;;;;;;;9.03;88.94;101186.81;4819861;29;20035;-85
2023/05/15 03:01:28;;;;;;;29.37;18.80;;;;;;;8.98;89.26;101175.78;4805439;29;19933;-84
2023/05/15 03:03:53;;;;;;;32.08;19.00;;;;;;;8.91;89.34;101189.09;4815545;29;20070;-84
2023/05/15 03:06:18;;;;;;;;;;;;;;;8.89;89.99;101175.00;4820536;29;20038;-85
2023/05/15 03:08:44;;;;;;;34.60;20.20;;;;;;;8.85;89.55;101192.47;4821769;29;20388;-85
2023/05/15 03:11:09;;;;;;;;;;;;;;;8.81;90.26;101181.28;4828002;29;20288;-84
2023/05/15 03:13:34;;;;;;;32.37;19.20;;;;;;;8.73;89.66;101176.78;4821378;29;20381;-84
2023/05/15 03:16:00;;;;;;;;;;;;;;;8.69;89.90;101167.41;4836914;29;20303;-84
2023/05/15 03:18:25;;;;;;;30.27;18.25;;;;;;;8.67;89.84;101182.00;4839371;29;20301;-84
2023/05/15 03:20:51;;;;;;;;;;;;;;;8.65;89.71;101185.69;4844210;29;20046;-85
2023/05/15 03:23:16;;;;;;;31.73;19.10;;;;;;;8.63;90.09;101171.63;4834438;29;19925;-84
2023/05/15 03:25:42;;;;;;;;;;;;;;;8.57;89.62;101174.16;4825959;29;20030;-84
2023/05/15 03:28:07;;;;;;;33.97;19.57;;;;;;;8.51;89.91;101177.56;4825797;29;20069;-84
2023/05/15 03:30:32;;;;;;;;;;;;;;;8.45;90.37;101174.53;4825346;29;20300;-84
2023/05/15 03:33:02;;;;;;;34.23;19.33;;;;;;;8.46;90.26;101170.03;4804754;29;20020;-84
2023/05/15 03:35:27;;;;;;;38.25;22.23;;;;;;;8.44;90.43;101172.88;4823997;29;20114;-85
2023/05/15 03:37:53;;;;;;;;;;;;;;;8.38;90.32;101173.56;4824933;29;20109;-84
2023/05/15 03:40:18;;;;;;;38.67;20.90;;;;;;;8.35;90.99;101157.81;4822927;29;20409;-84
2023/05/15 03:42:43;;;;;;;;;;;;;;;8.30;91.25;101165.56;4820256;29;20488;-84
2023/05/15 03:45:09;;;;;;;35.53;18.00;;;;;;;8.27;91.02;101161.38;4823309;29;19921;-84
2023/05/15 03:47:34;;;;;;;;;;;;;;;8.25;91.04;101171.44;4821103;29;20034;-85
2023/05/15 03:49:59;;;;;;;34.17;19.43;;;;;;;8.24;91.18;101166.25;4824130;29;20357;-84
2023/05/15 03:52:24;;;;;;;;;;;;;;;8.21;91.37;101159.38;4824578;29;20842;-85
2023/05/15 03:54:50;;;;;;;37.90;20.80;;;;;;;8.20;91.18;101165.75;4823052;29;19924;-84
2023/05/15 03:57:15;;;;;;;;;;;;;;;8.21;91.32;101156.69;4809058;29;20079;-85
2023/05/15 03:59:40;;;;;;;39.80;21.23;;;;;;;8.23;91.47;101159.19;4825838;29;19925;-83
2023/05/15 04:02:06;;;;;;;;;;;;;;;8.22;91.01;101155.69;4821984;29;20033;-83
2023/05/15 04:04:31;;;;;;;41.87;21.80;;;;;;;8.27;91.78;101158.69;4823284;29;19973;-89
2023/05/15 04:06:56;;;;;;;;;;;;;;;8.26;90.88;101159.72;4815679;29;20300;-84
2023/05/15 04:09:22;;;;;;;36.40;20.67;;;;;;;8.27;91.27;101161.38;4822336;29;20319;-83
2023/05/15 04:11:47;;;;;;;;;;;;;;;8.26;90.83;101157.03;4820455;29;20062;-86
2023/05/15 04:14:12;;;;;;;32.93;19.20;;;;;;;8.29;91.33;101159.38;4818502;29;19921;-79
2023/05/15 04:16:37;;;;;;;;;;;;;;;8.33;90.71;101162.53;4823948;29;20031;-85
2023/05/15 04:19:03;;;;;;;32.60;19.40;;;;;;;8.44;91.00;101188.13;4822227;29;19921;-82
2023/05/15 04:21:28;;;;;;;;;;;;;;;8.47;90.75;101172.53;4820682;29;20038;-82
2023/05/15 04:23:53;;;;;;;33.87;18.93;;;;;;;8.53;90.62;101176.38;4815751;29;20491;-80
2023/05/15 04:26:19;;;;;;;;;;;;;;;8.60;90.19;101185.41;4822984;29;20376;-81
2023/05/15 04:28:44;;;;;;;34.00;20.67;;;;;;;8.67;90.46;101179.31;4822484;29;19921;-81
2023/05/15 04:31:10;;;;;;;;;;;;;;;8.70;90.31;101165.53;4824549;29;20041;-81
2023/05/15 04:33:37;;;;;;;32.72;19.67;;;;;;;8.80;89.99;101182.28;4824017;29;19947;-81
2023/05/15 04:36:04;;;;;;;37.67;21.88;;;;;;;8.85;90.17;101176.38;4823885;29;20030;-82
2023/05/15 04:38:29;;;;;;;30.65;19.80;;;;;;;8.94;89.20;101183.34;4792015;29;20129;-83
2023/05/15 04:40:54;;;;;;;;;;;;;;;9.04;89.22;101183.13;4823661;29;20039;-82
2023/05/15 04:43:20;;;;;;;29.43;18.73;;;;;;;9.10;88.75;101179.72;4822914;29;19917;-82
2023/05/15 04:45:45;;;;;;;;;;;;;;;9.13;88.44;101176.69;4822624;29;20035;-82
2023/05/15 04:48:11;;;;;;;29.00;19.13;;;;;;;9.12;87.74;101174.16;4823882;29;19927;-82
2023/05/15 04:50:36;;;;;;;;;;;;;;;9.16;87.87;101191.59;4822942;29;20473;-82
2023/05/15 04:53:02;;;;;;;28.17;18.90;;;;;;;9.21;87.19;101190.03;4822421;29;19948;-79
2023/05/15 04:55:27;;;;;;;27.95;18.25;;;;;;;9.31;86.24;101183.59;4822694;29;20037;-79
2023/05/15 04:57:53;;;;;;;27.98;19.30;;;;;;;9.37;85.81;101186.41;4822848;29;20383;-79
2023/05/15 05:00:18;;;;;;;29.80;19.45;;;;;;;9.54;85.75;101188.94;4822086;29;20042;-79
2023/05/15 05:02:43;;;;;;;;;;;;;;;9.69;85.04;101197.06;4823498;29;20042;-79
2023/05/15 05:05:09;;;;;;;27.97;18.33;;;;;;;9.84;84.61;101192.53;4822319;29;19925;-79
2023/05/15 05:07:34;;;;;;;;;;;;;;;9.97;83.52;101196.41;4822204;29;20784;-79
2023/05/15 05:10:00;;;;;;;27.33;17.87;;;;;;;10.01;82.97;101197.72;4822432;29;19928;-79
2023/05/15 05:12:25;;;;;;;27.25;18.75;;;;;;;10.13;81.77;101195.41;4822627;29;20041;-81
2023/05/15 05:14:50;;;;;;;25.38;17.42;;;;;;;10.63;80.86;101198.34;4816975;29;20034;-79
2023/05/15 05:17:16;;;;;;;25.13;18.52;;;;;;;11.13;78.35;101197.66;4805703;29;20034;-79
2023/05/15 05:19:41;;;;;;;24.83;18.15;;;;;;;11.67;75.60;101194.38;4821017;29;20041;-81
2023/05/15 05:22:07;;;;;;;26.23;18.55;;;;;;;12.10;73.82;101192.63;4822413;29;20531;-80
2023/05/15 05:24:34;;;;;;;23.88;18.77;;;;;;;12.08;73.17;101190.16;4818093;29;20045;-79
2023/05/15 05:26:59;;;;;;;26.80;19.15;;;;;;;11.81;73.65;101189.13;4823839;29;20435;-80
2023/05/15 05:29:24;;;;;;;29.35;19.23;;;;;;;11.56;74.09;101192.25;4821084;29;20027;-81
2023/05/15 05:31:50;;;;;;;27.25;19.83;;;;;;;11.50;75.08;101187.63;4821159;29;20042;-79
2023/05/15 05:34:15;;;;;;;28.40;19.27;;;;;;;11.56;74.84;101191.41;4819172;29;20042;-79
2023/05/15 05:36:41;;;;;;;27.10;19.15;;;;;;;11.68;75.22;101185.28;4819682;29;20364;-79
2023/05/15 05:39:07;;;;;;;29.02;20.13;;;;;;;11.65;74.73;101191.03;4821129;29;20034;-79
2023/05/15 05:41:33;;;;;;;26.02;18.80;;;;;;;11.78;74.73;101194.91;4823443;29;20023;-80
2023/05/15 05:43:58;;;;;;;25.58;18.70;;;;;;;11.95;73.90;101200.81;4814455;29;20046;-79
2023/05/15 05:46:25;;;;;;;26.92;18.75;;;;;;;12.13;73.84;101208.44;4816480;29;20394;-80
2023/05/15 05:48:50;;;;;;;27.52;19.48;;;;;;;11.80;74.74;101192.84;4822422;29;20031;-79
2023/05/15 05:51:15;;;;;;;23.42;18.13;;;;;;;11.98;73.37;101201.28;4822197;29;20033;-80
2023/05/15 05:53:41;;;;;;;24.70;18.83;;;;;;;12.02;73.81;101200.88;4819946;29;20045;-79
2023/05/15 05:56:06;;;;;;;25.42;17.60;;;;;;;11.91;73.83;101202.25;4823698;29;20448;-80
2023/05/15 05:58:32;;;;;;;25.55;18.50;;;;;;;12.30;72.30;101208.13;4789428;29;20034;-79
2023/05/15 06:00:57;;;;;;;23.13;17.58;;;;;;;12.77;72.52;101214.53;4821567;29;20033;-80
2023/05/15 06:03:23;;;;;;;23.02;17.38;;;;;;;13.28;69.70;101217.78;4822722;29;20395;-79
2023/05/15 06:05:48;;;;;;;21.52;16.77;;;;;;;14.13;65.88;101216.31;4822324;29;20030;-80
2023/05/15 06:08:14;;;;;;;22.23;16.60;;;;;;;14.85;65.42;101227.97;4822536;29;20045;-80
2023/05/15 06:10:41;;;;;;;21.92;16.77;;;;;;;14.83;64.31;101221.06;4823178;29;20052;-80
2023/05/15 06:13:06;;;;;;;21.60;17.13;;;;;;;15.43;62.27;101225.31;4822309;29;20121;-80
2023/05/15 06:15:32;;;;;;;21.45;17.25;;;;;;;15.81;60.12;101237.94;4816780;29;20028;-80
2023/05/15 06:17:57;;;;;;;19.55;16.00;;;;;;;15.73;59.42;101224.63;4822718;29;20380;-80
2023/05/15 06:20:23;;;;;;;21.23;17.45;;;;;;;15.02;60.39;101230.16;4823365;29;20029;-80
2023/05/15 06:22:48;;;;;;;22.52;17.27;;;;;;;15.16;61.17;101236.34;4822414;29;20475;-80
2023/05/15 06:25:13;;;;;;;20.02;15.98;;;;;;;15.66;60.77;101227.41;4823874;29;20038;-80
2023/05/15 06:27:42;;;;;;;20.20;15.90;;;;;;;16.12;59.03;101224.53;4827655;29;20387;-80
2023/05/15 06:30:08;;;;;;;19.85;15.55;;;;;;;17.43;55.36;101231.41;4830697;29;20042;-80
2023/05/15 06:32:33;;;;;;;17.40;13.95;;;;;;;17.62;53.44;101229.47;4839947;29;20050;-80
2023/05/15 06:34:59;;;;;;;16.30;13.55;;;;;;;17.28;53.92;101235.41;4840481;29;20034;-80
2023/05/15 06:37:24;;;;;;;16.35;12.98;;;;;;;16.79;54.70;101231.91;4826838;29;20031;-81
2023/05/15 06:39:50;;;;;;;17.05;14.38;;;;;;;16.07;56.89;101236.03;4823146;29;20039;-81
2023/05/15 06:42:15;;;;;;;17.05;13.40;;;;;;;15.91;58.59;101230.13;4821862;29;20030;-80
2023/05/15 06:44:40;;;;;;;16.98;13.73;;;;;;;15.71;59.00;101237.59;4821842;29;20050;-80
2023/05/15 06:47:06;;;;;;;17.80;14.15;;;;;;;15.75;59.14;101225.25;4822697;29;20394;-81
2023/05/15 06:49:31;;;;;;;15.70;13.27;;;;;;;16.30;57.90;101232.69;4822530;29;20046;-81
2023/05/15 06:51:56;;;;;;;14.65;12.65;;;;;;;16.93;55.96;101233.38;4825783;29;20546;-81
2023/05/15 06:54:22;;;;;;;16.52;13.10;;;;;;;17.01;55.29;101234.97;4825743;29;20048;-82
2023/05/15 06:56:47;;;;;;;15.85;13.13;;;;;;;17.23;54.33;101232.56;4825659;29;20483;-81
2023/05/15 06:59:12;;;;;;;14.95;12.90;;;;;;;16.99;55.10;101226.22;4824242;29;20034;-82
2023/05/15 07:01:38;;;;;;;15.50;12.55;;;;;;;17.66;53.92;101236.06;4825665;29;20034;-82
2023/05/15 07:04:03;;;;;;;14.90;13.32;;;;;;;18.55;50.84;101225.25;4825799;29;20154;-82
2023/05/15 07:06:30;;;;;;;14.32;12.27;;;;;;;20.32;47.42;101229.88;4825231;29;20081;-82
2023/05/15 07:08:58;;;;;;;13.05;11.73;;;;;;;21.04;46.25;101226.09;4825549;29;20034;-82
2023/05/15 07:11:24;;;;;;;14.82;11.98;;;;;;;21.93;41.97;101222.19;4825162;29;20042;-82
2023/05/15 07:13:51;;;;;;;15.43;12.57;;;;;;;22.36;40.69;101233.09;4824790;29;20407;-82
2023/05/15 07:16:16;;;;;;;14.45;12.48;;;;;;;22.42;40.85;101232.03;4825525;29;20034;-82
2023/05/15 07:18:41;;;;;;;13.43;12.02;;;;;;;22.42;40.46;101232.03;4824684;29;20062;-82
2023/05/15 07:21:07;;;;;;;15.52;12.27;;;;;;;23.16;38.51;101235.53;4825348;29;20034;-80
2023/05/15 07:23:32;;;;;;;12.55;11.27;;;;;;;23.59;38.03;101234.50;4824973;29;20129;-80
2023/05/15 07:25:58;;;;;;;12.82;11.52;;;;;;;22.33;39.25;101228.16;4824598;29;20372;-80
2023/05/15 07:28:23;;;;;;;11.73;10.52;;;;;;;23.05;38.18;101227.56;4825902;29;20027;-81
2023/05/15 07:30:48;;;;;;;12.18;10.40;;;;;;;22.68;39.86;101226.66;4824458;29;20134;-80
2023/05/15 07:33:14;;;;;;;11.65;10.48;;;;;;;22.86;38.82;101231.66;4826456;29;20035;-80
2023/05/15 07:35:42;;;;;;;12.68;11.38;;;;;;;21.81;41.08;101230.59;4825371;29;20492;-80
2023/05/15 07:38:08;;;;;;;12.63;11.30;;;;;;;21.30;42.42;101230.97;4824556;29;20448;-81
2023/05/15 07:40:33;;;;;;;13.05;11.05;;;;;;;21.83;42.04;101228.41;4825060;29;20033;-80
2023/05/15 07:42:58;;;;;;;10.98;9.88;;;;;;;22.89;39.34;101226.72;4824945;29;20038;-81
2023/05/15 07:45:24;;;;;;;12.10;10.77;;;;;;;23.43;37.79;101229.00;4823971;29;20050;-81
2023/05/15 07:47:49;;;;;;;11.05;9.82;;;;;;;24.33;36.05;101223.91;4826307;29;20068;-81
2023/05/15 07:50:15;;;;;;;12.15;10.90;;;;;;;23.76;36.55;101226.78;4825203;29;20664;-80
2023/05/15 07:52:41;;;;;;;11.02;9.40;;;;;;;24.44;36.50;101223.88;4824485;29;20030;-80
2023/05/15 07:55:07;;;;;;;11.63;10.35;;;;;;;25.05;35.58;101219.16;4825696;29;20083;-81
2023/05/15 07:57:32;;;;;;;11.25;9.88;;;;;;;25.52;34.76;101219.63;4825510;29;20022;-81
2023/05/15 07:59:58;;;;;;;11.13;10.00;;;;;;;25.21;34.04;101215.19;4824659;29;20141;-81
2023/05/15 08:02:23;;;;;;;10.25;9.25;;;;;;;25.92;32.80;101217.56;4824452;29;20034;-81
2023/05/15 08:04:49;;;;;;;11.70;9.98;;;;;;;26.33;32.09;101216.31;4826188;29;20044;-81
2023/05/15 08:07:14;;;;;;;10.70;9.60;;;;;;;24.97;35.10;101221.41;4824484;29;20030;-81
2023/05/15 08:09:40;;;;;;;11.40;10.30;;;;;;;24.17;36.30;101219.59;4808467;29;20049;-81
2023/05/15 08:12:21;;;;;;;11.80;10.60;;;;;;;24.37;36.23;101218.66;4825113;29;20082;-81
2023/05/15 08:14:50;;;;;;;11.57;10.13;;;;;;;25.33;33.69;101216.75;4816819;29;20038;-81
2023/05/15 08:17:16;;;;;;;11.63;10.20;;;;;;;25.02;34.29;101217.78;4825189;29;20026;-81
2023/05/15 08:19:41;;;;;;;11.13;10.07;;;;;;;24.09;35.37;101223.72;4824470;29;20540;-81
2023/05/15 08:22:07;;;;;;;11.45;10.35;;;;;;;23.41;37.23;101224.88;4823318;29;20034;-81
2023/05/15 08:24:32;;;;;;;11.77;10.57;;;;;;;23.98;35.85;101227.59;4820189;29;20042;-81
2023/05/15 08:26:58;;;;;;;12.45;10.98;;;;;;;23.20;36.78;101213.03;4824397;29;20033;-80
2023/05/15 08:29:23;;;;;;;13.48;11.20;;;;;;;22.14;38.08;101217.63;4817064;29;20483;-83
2023/05/15 08:31:48;;;;;;;11.73;10.55;;;;;;;22.73;38.32;101221.19;4824268;29;20151;-82
2023/05/15 08:34:14;;;;;;;12.40;11.10;;;;;;;22.53;38.23;101222.78;4820799;29;20038;-82
2023/05/15 08:36:39;;;;;;;12.13;10.48;;;;;;;24.42;36.30;101221.41;4820291;29;20487;-82
2023/05/15 08:39:06;;;;;;;12.07;10.90;;;;;;;24.91;35.28;101203.25;4815369;29;20039;-84
2023/05/15 08:41:32;;;;;;;12.45;11.15;;;;;;;25.21;33.68;101203.31;4822045;29;20113;-82
2023/05/15 08:43:58;;;;;;;10.60;9.52;;;;;;;26.08;33.43;101204.44;4822524;29;20035;-83
2023/05/15 08:46:25;;;;;;;10.88;9.77;;;;;;;25.90;31.21;101203.25;4824590;29;20090;-82
2023/05/15 08:48:50;;;;;;;12.85;9.60;;;;;;;25.34;31.51;101196.34;4808118;29;20034;-83
2023/05/15 08:51:15;;;;;;;12.05;9.80;;;;;;;25.52;32.75;101203.91;4824044;29;20098;-83
2023/05/15 08:53:41;;;;;;;10.88;9.32;;;;;;;25.30;33.20;101201.59;4821719;29;20061;-82
2023/05/15 08:56:08;;;;;;;10.85;9.82;;;;;;;26.52;30.45;101194.28;4802677;29;20049;-82
2023/05/15 08:58:33;;;;;;;11.38;10.18;;;;;;;25.63;31.74;101192.78;4804491;29;20042;-84
2023/05/15 09:00:59;;;;;;;12.30;9.30;;;;;;;25.93;31.17;101193.59;4807015;29;20402;-83
2023/05/15 09:03:24;;;;;;;9.88;8.65;;;;;;;26.79;30.86;101195.53;4807742;29;20038;-82
2023/05/15 09:05:51;;;;;;;11.07;9.38;;;;;;;27.14;30.17;101201.66;4806005;29;20533;-82
2023/05/15 09:08:16;;;;;;;10.80;9.70;;;;;;;24.83;33.51;101190.91;4801337;29;20378;-84
2023/05/15 09:10:42;;;;;;;11.93;9.80;;;;;;;24.91;33.02;101189.50;4803403;29;20540;-82
2023/05/15 09:13:08;;;;;;;11.38;9.13;;;;;;;27.41;29.41;101193.75;4818817;29;20034;-82
2023/05/15 09:15:33;;;;;;;10.43;9.32;;;;;;;27.86;29.41;101194.06;4817340;29;20278;-82
2023/05/15 09:17:58;;;;;;;10.15;9.15;;;;;;;27.56;29.39;101196.28;4800939;29;20031;-83
2023/05/15 09:20:31;;;;;;;10.10;9.13;;;;;;;27.24;29.90;101197.91;4821615;29;20353;-83
2023/05/15 09:22:58;;;;;;;10.73;9.13;;;;;;;26.76;30.71;101188.69;4822994;29;20041;-83
2023/05/15 09:25:38;;;;;;;10.45;9.35;;;;;;;27.55;28.88;101194.63;4820947;29;20503;-83
2023/05/15 09:28:09;;;;;;;9.95;8.85;;;;;;;26.64;30.30;101191.06;4822831;29;20042;-83
2023/05/15 09:30:39;;;;;;;10.23;8.98;;;;;;;26.96;30.52;101189.53;4817893;29;20460;-83
2023/05/15 09:33:04;;;;;;;10.80;9.80;;;;;;;26.71;30.50;101188.75;4822809;29;20125;-82
2023/05/15 09:35:31;;;;;;;11.48;8.95;;;;;;;25.72;31.44;101191.06;4819560;29;20041;-83
2023/05/15 09:37:58;;;;;;;10.30;9.20;;;;;;;25.45;32.85;101188.84;4821945;29;20494;-82
2023/05/15 09:40:24;;;;;;;11.80;9.23;;;;;;;26.07;32.25;101196.44;4822230;29;20117;-82
2023/05/15 09:42:52;;;;;;;10.07;9.13;;;;;;;26.73;31.09;101197.56;4792118;29;20111;-82
2023/05/15 09:45:18;;;;;;;11.23;9.60;;;;;;;27.76;29.84;101194.25;4820715;29;20038;-82
2023/05/15 09:47:44;;;;;;;11.02;9.93;;;;;;;26.64;30.26;101200.16;4823188;29;20191;-82
2023/05/15 09:50:09;;;;;;;12.00;10.10;;;;;;;26.26;31.83;101191.03;4805952;29;20030;-81
2023/05/15 09:52:35;;;;;;;10.95;9.43;;;;;;;26.20;32.09;101194.94;4802497;29;20031;-81
2023/05/15 09:55:00;;;;;;;10.98;9.85;;;;;;;28.03;29.25;101192.66;4821554;29;20398;-82
2023/05/15 09:57:26;;;;;;;10.52;9.45;;;;;;;28.82;28.14;101197.06;4821937;29;20125;-81
2023/05/15 09:59:52;;;;;;;11.52;9.73;;;;;;;27.81;28.65;101191.41;4821260;29;20027;-81
2023/05/15 10:02:33;;;;;;;10.48;9.07;;;;;;;27.05;28.91;101192.41;4822811;29;20033;-81
2023/05/15 10:04:58;;;;;;;13.63;10.10;;;;;;;28.72;27.72;101191.75;4822727;29;20034;-82
2023/05/15 10:07:28;;;;;;;11.00;9.90;;;;;;;28.75;28.05;101185.59;4819902;29;20053;-82
2023/05/15 10:09:53;;;;;;;9.25;8.45;;;;;;;28.86;27.18;101184.22;4825048;29;20042;-82
2023/05/15 10:12:19;;;;;;;10.57;8.73;;;;;;;28.88;26.98;101186.66;4820872;29;20037;-82
2023/05/15 10:14:44;;;;;;;10.20;9.23;;;;;;;27.61;28.73;101187.88;4816724;29;20495;-82
2023/05/15 10:17:10;;;;;;;10.02;7.75;;;;;;;28.87;27.77;101188.63;4807994;29;20038;-82
2023/05/15 10:19:35;;;;;;;7.72;6.97;;;;;;;30.09;26.08;101184.94;4807006;29;20030;-82
2023/05/15 10:22:00;;;;;;;9.95;9.05;;;;;;;28.67;26.32;101178.84;4822349;29;20031;-82
2023/05/15 10:24:26;;;;;;;10.88;7.80;;;;;;;29.93;25.10;101186.50;4804937;29;20486;-82
2023/05/15 10:26:51;;;;;;;9.27;7.25;;;;;;;30.62;25.07;101176.72;4804952;29;20510;-81
2023/05/15 10:29:17;;;;;;;9.30;8.43;;;;;;;30.63;24.13;101181.13;4797884;29;20341;-82
2023/05/15 10:31:43;;;;;;;10.35;9.35;;;;;;;31.52;24.00;101184.63;4827307;29;20483;-82
2023/05/15 10:34:09;;;;;;;10.70;9.60;;;;;;;29.13;26.27;101178.88;4807704;29;20042;-82
2023/05/15 10:36:35;;;;;;;10.50;9.40;;;;;;;27.96;28.41;101177.25;4831909;29;20072;-82
2023/05/15 10:39:02;;;;;;;8.30;7.35;;;;;;;28.53;26.17;101178.88;4826926;29;20045;-82
2023/05/15 10:41:28;;;;;;;7.70;6.80;;;;;;;29.76;24.43;101173.34;4820916;29;20487;-82
2023/05/15 10:43:54;;;;;;;9.00;7.97;;;;;;;29.26;25.19;101164.13;4820522;29;20046;-82
2023/05/15 10:46:19;;;;;;;8.13;7.43;;;;;;;29.89;24.58;101166.06;4821833;29;20055;-82
2023/05/15 10:48:45;;;;;;;12.10;7.57;;;;;;;29.32;25.20;101167.56;4821469;29;20034;-82
2023/05/15 10:51:38;;;;;;;10.18;8.75;;;;;;;27.41;28.03;101163.34;4819863;29;20038;-82
2023/05/15 10:54:03;;;;;;;9.45;8.40;;;;;;;26.44;29.54;101162.63;4818668;29;20058;-83
2023/05/15 10:56:29;;;;;;;8.45;7.22;;;;;;;27.01;28.50;101159.03;4821028;29;20034;-82
2023/05/15 10:58:54;;;;;;;8.75;7.80;;;;;;;26.97;28.29;101158.00;4820737;29;20043;-82
2023/05/15 11:01:23;;;;;;;9.13;8.13;;;;;;;27.89;27.48;101157.47;4822344;29;20471;-82
2023/05/15 11:03:49;;;;;;;9.18;7.47;;;;;;;27.82;28.21;101162.59;4820865;29;20050;-82
2023/05/15 11:06:14;;;;;;;9.05;8.23;;;;;;;27.53;28.69;101159.00;4820854;29;20556;-82
2023/05/15 11:08:43;;;;;;;8.45;7.18;;;;;;;26.18;30.06;101151.91;4822191;29;20045;-82
2023/05/15 11:11:29;;;;;;;8.20;7.38;;;;;;;26.07;30.93;101141.28;4818689;29;20492;-82
2023/05/15 11:14:04;;;;;;;8.23;6.72;;;;;;;26.46;31.01;101145.75;4804399;29;20137;-82
2023/05/15 11:17:08;;;;;;;7.63;6.85;;;;;;;27.95;28.43;101150.72;4806971;29;20483;-82
2023/05/15 11:19:35;;;;;;;8.93;6.65;;;;;;;27.78;29.31;101143.03;4744053;30;20098;-82